sensor_id;sensor_type;location;lat;lon;timestamp;P1;durP1;ratioP1;P2;durP2;ratioP2
33190;SDS011;19554;42.652;23.364;2022-12-07T00:01:08;70.35;;;38.92;;
33190;SDS011;19554;42.652;23.364;2022-12-07T00:03:36;71.10;;;38.13;;
33190;SDS011;19554;42.652;23.364;2022-12-07T00:06:03;65.35;;;33.50;;
33190;SDS011;19554;42.652;23.364;2022-12-07T00:08:30;60.92;;;30.45;;
33190;SDS011;19554;42.652;23.364;2022-12-07T00:11:00;56.45;;;30.35;;
33190;SDS011;19554;42.652;23.364;2022-12-07T00:13:33;75.15;;;34.47;;
33190;SDS011;19554;42.652;23.364;2022-12-07T00:16:04;73.88;;;35.58;;
33190;SDS011;19554;42.652;23.364;2022-12-07T00:18:31;72.70;;;38.10;;
33190;SDS011;19554;42.652;23.364;2022-12-07T00:21:04;75.25;;;38.50;;
33190;SDS011;19554;42.652;23.364;2022-12-07T00:23:34;70.40;;;37.17;;
33190;SDS011;19554;42.652;23.364;2022-12-07T00:28:45;66.38;;;32.97;;
33190;SDS011;19554;42.652;23.364;2022-12-07T00:31:12;64.10;;;33.47;;
33190;SDS011;19554;42.652;23.364;2022-12-07T00:33:38;67.97;;;34.42;;
33190;SDS011;19554;42.652;23.364;2022-12-07T00:36:05;62.63;;;33.28;;
33190;SDS011;19554;42.652;23.364;2022-12-07T00:38:33;60.53;;;29.52;;
33190;SDS011;19554;42.652;23.364;2022-12-07T00:41:01;57.92;;;30.70;;
33190;SDS011;19554;42.652;23.364;2022-12-07T00:43:28;63.95;;;31.88;;
33190;SDS011;19554;42.652;23.364;2022-12-07T00:45:54;71.32;;;34.95;;
33190;SDS011;19554;42.652;23.364;2022-12-07T00:48:20;65.57;;;32.35;;
33190;SDS011;19554;42.652;23.364;2022-12-07T00:50:46;69.82;;;34.45;;
33190;SDS011;19554;42.652;23.364;2022-12-07T00:53:12;64.55;;;33.78;;
33190;SDS011;19554;42.652;23.364;2022-12-07T00:55:38;60.05;;;33.75;;
33190;SDS011;19554;42.652;23.364;2022-12-07T00:58:03;60.28;;;31.48;;
33190;SDS011;19554;42.652;23.364;2022-12-07T01:00:29;62.88;;;31.45;;
33190;SDS011;19554;42.652;23.364;2022-12-07T01:02:55;66.53;;;34.78;;
33190;SDS011;19554;42.652;23.364;2022-12-07T01:05:21;64.88;;;32.72;;
33190;SDS011;19554;42.652;23.364;2022-12-07T01:07:46;61.30;;;32.45;;
33190;SDS011;19554;42.652;23.364;2022-12-07T01:10:12;65.75;;;34.42;;
33190;SDS011;19554;42.652;23.364;2022-12-07T01:12:38;68.80;;;37.42;;
33190;SDS011;19554;42.652;23.364;2022-12-07T01:15:04;74.30;;;39.08;;
33190;SDS011;19554;42.652;23.364;2022-12-07T01:17:30;74.30;;;37.97;;
33190;SDS011;19554;42.652;23.364;2022-12-07T01:19:55;82.18;;;37.10;;
33190;SDS011;19554;42.652;23.364;2022-12-07T01:22:21;83.90;;;39.38;;
33190;SDS011;19554;42.652;23.364;2022-12-07T01:24:46;84.32;;;43.15;;
33190;SDS011;19554;42.652;23.364;2022-12-07T01:27:12;83.53;;;45.40;;
33190;SDS011;19554;42.652;23.364;2022-12-07T01:29:38;83.85;;;44.25;;
33190;SDS011;19554;42.652;23.364;2022-12-07T01:32:03;86.43;;;43.72;;
33190;SDS011;19554;42.652;23.364;2022-12-07T01:34:29;81.63;;;42.67;;
33190;SDS011;19554;42.652;23.364;2022-12-07T01:36:55;76.03;;;42.30;;
33190;SDS011;19554;42.652;23.364;2022-12-07T01:39:20;81.15;;;42.00;;
33190;SDS011;19554;42.652;23.364;2022-12-07T01:41:46;75.07;;;41.58;;
33190;SDS011;19554;42.652;23.364;2022-12-07T01:47:03;86.22;;;44.78;;
33190;SDS011;19554;42.652;23.364;2022-12-07T01:49:33;98.72;;;47.22;;
33190;SDS011;19554;42.652;23.364;2022-12-07T01:54:57;90.72;;;49.28;;
33190;SDS011;19554;42.652;23.364;2022-12-07T01:57:26;81.32;;;43.97;;
33190;SDS011;19554;42.652;23.364;2022-12-07T01:59:52;77.22;;;41.50;;
33190;SDS011;19554;42.652;23.364;2022-12-07T02:02:21;84.20;;;42.88;;
33190;SDS011;19554;42.652;23.364;2022-12-07T02:04:51;92.88;;;48.15;;
33190;SDS011;19554;42.652;23.364;2022-12-07T02:07:20;78.95;;;41.55;;
33190;SDS011;19554;42.652;23.364;2022-12-07T02:09:46;76.95;;;38.03;;
33190;SDS011;19554;42.652;23.364;2022-12-07T02:12:12;65.75;;;36.00;;
33190;SDS011;19554;42.652;23.364;2022-12-07T02:14:37;67.72;;;36.47;;
33190;SDS011;19554;42.652;23.364;2022-12-07T02:17:14;68.95;;;36.00;;
33190;SDS011;19554;42.652;23.364;2022-12-07T02:20:02;76.65;;;38.28;;
33190;SDS011;19554;42.652;23.364;2022-12-07T02:28:07;79.80;;;40.20;;
33190;SDS011;19554;42.652;23.364;2022-12-07T02:30:44;80.43;;;41.72;;
33190;SDS011;19554;42.652;23.364;2022-12-07T02:33:14;84.73;;;41.43;;
33190;SDS011;19554;42.652;23.364;2022-12-07T02:35:51;76.13;;;40.15;;
33190;SDS011;19554;42.652;23.364;2022-12-07T02:38:54;89.60;;;44.03;;
33190;SDS011;19554;42.652;23.364;2022-12-07T02:41:47;91.55;;;49.15;;
33190;SDS011;19554;42.652;23.364;2022-12-07T02:44:10;85.63;;;47.67;;
33190;SDS011;19554;42.652;23.364;2022-12-07T02:46:47;78.23;;;40.57;;
33190;SDS011;19554;42.652;23.364;2022-12-07T02:49:17;72.95;;;37.83;;
33190;SDS011;19554;42.652;23.364;2022-12-07T02:51:44;71.35;;;37.63;;
33190;SDS011;19554;42.652;23.364;2022-12-07T02:54:12;70.55;;;36.95;;
33190;SDS011;19554;42.652;23.364;2022-12-07T02:56:43;67.88;;;36.25;;
33190;SDS011;19554;42.652;23.364;2022-12-07T03:10:54;66.47;;;37.28;;
33190;SDS011;19554;42.652;23.364;2022-12-07T03:18:55;70.78;;;37.05;;
33190;SDS011;19554;42.652;23.364;2022-12-07T03:21:27;67.75;;;35.70;;
33190;SDS011;19554;42.652;23.364;2022-12-07T03:23:58;72.72;;;35.60;;
33190;SDS011;19554;42.652;23.364;2022-12-07T03:26:31;74.68;;;37.17;;
33190;SDS011;19554;42.652;23.364;2022-12-07T03:29:02;75.22;;;36.78;;
33190;SDS011;19554;42.652;23.364;2022-12-07T03:31:33;68.97;;;38.13;;
33190;SDS011;19554;42.652;23.364;2022-12-07T03:34:06;64.93;;;36.97;;
33190;SDS011;19554;42.652;23.364;2022-12-07T03:36:39;64.82;;;37.03;;
33190;SDS011;19554;42.652;23.364;2022-12-07T03:42:07;67.60;;;37.80;;
33190;SDS011;19554;42.652;23.364;2022-12-07T03:44:35;69.05;;;36.65;;
33190;SDS011;19554;42.652;23.364;2022-12-07T03:47:03;73.93;;;36.95;;
33190;SDS011;19554;42.652;23.364;2022-12-07T03:57:42;67.40;;;37.72;;
33190;SDS011;19554;42.652;23.364;2022-12-07T04:00:10;66.05;;;36.92;;
33190;SDS011;19554;42.652;23.364;2022-12-07T04:02:36;71.18;;;37.35;;
33190;SDS011;19554;42.652;23.364;2022-12-07T04:05:02;66.22;;;37.70;;
33190;SDS011;19554;42.652;23.364;2022-12-07T04:07:28;72.60;;;36.38;;
33190;SDS011;19554;42.652;23.364;2022-12-07T04:09:54;64.30;;;34.65;;
33190;SDS011;19554;42.652;23.364;2022-12-07T04:12:22;71.30;;;36.78;;
33190;SDS011;19554;42.652;23.364;2022-12-07T04:14:48;67.05;;;35.13;;
33190;SDS011;19554;42.652;23.364;2022-12-07T04:17:13;67.05;;;33.55;;
33190;SDS011;19554;42.652;23.364;2022-12-07T04:19:39;68.28;;;34.38;;
33190;SDS011;19554;42.652;23.364;2022-12-07T04:22:04;68.57;;;36.00;;
33190;SDS011;19554;42.652;23.364;2022-12-07T04:24:30;68.72;;;37.80;;
33190;SDS011;19554;42.652;23.364;2022-12-07T04:26:56;80.63;;;39.20;;
33190;SDS011;19554;42.652;23.364;2022-12-07T04:29:22;72.72;;;36.88;;
33190;SDS011;19554;42.652;23.364;2022-12-07T04:31:48;73.80;;;38.58;;
33190;SDS011;19554;42.652;23.364;2022-12-07T04:34:14;65.82;;;36.72;;
33190;SDS011;19554;42.652;23.364;2022-12-07T04:36:40;67.57;;;35.92;;
33190;SDS011;19554;42.652;23.364;2022-12-07T04:39:06;68.40;;;36.30;;
33190;SDS011;19554;42.652;23.364;2022-12-07T04:41:32;62.70;;;33.60;;
33190;SDS011;19554;42.652;23.364;2022-12-07T04:43:59;66.38;;;36.63;;
33190;SDS011;19554;42.652;23.364;2022-12-07T04:46:26;70.95;;;36.92;;
33190;SDS011;19554;42.652;23.364;2022-12-07T04:48:53;61.50;;;35.38;;
33190;SDS011;19554;42.652;23.364;2022-12-07T04:51:23;64.72;;;35.50;;
33190;SDS011;19554;42.652;23.364;2022-12-07T04:53:53;65.07;;;35.53;;
33190;SDS011;19554;42.652;23.364;2022-12-07T04:56:20;60.30;;;33.80;;
33190;SDS011;19554;42.652;23.364;2022-12-07T04:58:47;70.82;;;35.03;;
33190;SDS011;19554;42.652;23.364;2022-12-07T05:01:13;65.13;;;34.95;;
33190;SDS011;19554;42.652;23.364;2022-12-07T05:03:40;74.60;;;36.13;;
33190;SDS011;19554;42.652;23.364;2022-12-07T05:06:06;69.28;;;33.53;;
33190;SDS011;19554;42.652;23.364;2022-12-07T05:08:33;77.10;;;34.42;;
33190;SDS011;19554;42.652;23.364;2022-12-07T05:10:59;73.50;;;34.70;;
33190;SDS011;19554;42.652;23.364;2022-12-07T05:13:25;68.28;;;35.80;;
33190;SDS011;19554;42.652;23.364;2022-12-07T05:15:50;65.60;;;35.10;;
33190;SDS011;19554;42.652;23.364;2022-12-07T05:18:16;73.15;;;38.13;;
33190;SDS011;19554;42.652;23.364;2022-12-07T05:20:41;67.97;;;36.22;;
33190;SDS011;19554;42.652;23.364;2022-12-07T05:23:08;67.10;;;35.22;;
33190;SDS011;19554;42.652;23.364;2022-12-07T05:25:33;70.45;;;35.35;;
33190;SDS011;19554;42.652;23.364;2022-12-07T05:27:59;66.00;;;34.85;;
33190;SDS011;19554;42.652;23.364;2022-12-07T05:30:25;72.10;;;32.85;;
33190;SDS011;19554;42.652;23.364;2022-12-07T05:32:51;81.95;;;38.00;;
33190;SDS011;19554;42.652;23.364;2022-12-07T05:35:17;78.32;;;38.63;;
33190;SDS011;19554;42.652;23.364;2022-12-07T05:37:43;78.05;;;36.47;;
33190;SDS011;19554;42.652;23.364;2022-12-07T05:40:10;68.28;;;35.38;;
33190;SDS011;19554;42.652;23.364;2022-12-07T05:42:36;54.85;;;32.95;;
33190;SDS011;19554;42.652;23.364;2022-12-07T05:45:02;69.55;;;36.38;;
33190;SDS011;19554;42.652;23.364;2022-12-07T05:47:28;71.07;;;37.50;;
33190;SDS011;19554;42.652;23.364;2022-12-07T05:49:54;68.72;;;35.47;;
33190;SDS011;19554;42.652;23.364;2022-12-07T05:52:20;56.00;;;32.80;;
33190;SDS011;19554;42.652;23.364;2022-12-07T05:54:45;59.47;;;32.75;;
33190;SDS011;19554;42.652;23.364;2022-12-07T05:57:11;65.07;;;35.30;;
33190;SDS011;19554;42.652;23.364;2022-12-07T05:59:36;61.05;;;34.13;;
33190;SDS011;19554;42.652;23.364;2022-12-07T06:02:09;71.25;;;34.78;;
33190;SDS011;19554;42.652;23.364;2022-12-07T06:04:37;67.43;;;36.70;;
33190;SDS011;19554;42.652;23.364;2022-12-07T06:07:04;60.17;;;33.97;;
33190;SDS011;19554;42.652;23.364;2022-12-07T06:09:30;71.50;;;36.53;;
33190;SDS011;19554;42.652;23.364;2022-12-07T06:11:56;68.63;;;35.58;;
33190;SDS011;19554;42.652;23.364;2022-12-07T06:14:41;68.45;;;35.80;;
33190;SDS011;19554;42.652;23.364;2022-12-07T06:17:07;62.42;;;32.13;;
33190;SDS011;19554;42.652;23.364;2022-12-07T06:19:32;68.15;;;33.95;;
33190;SDS011;19554;42.652;23.364;2022-12-07T06:21:58;67.85;;;32.88;;
33190;SDS011;19554;42.652;23.364;2022-12-07T06:24:24;57.67;;;32.17;;
33190;SDS011;19554;42.652;23.364;2022-12-07T06:26:49;62.00;;;33.70;;
33190;SDS011;19554;42.652;23.364;2022-12-07T06:29:16;71.20;;;33.13;;
33190;SDS011;19554;42.652;23.364;2022-12-07T06:31:41;61.97;;;32.67;;
33190;SDS011;19554;42.652;23.364;2022-12-07T06:34:09;73.22;;;34.65;;
33190;SDS011;19554;42.652;23.364;2022-12-07T06:36:36;79.03;;;36.95;;
33190;SDS011;19554;42.652;23.364;2022-12-07T06:39:02;99.55;;;37.13;;
33190;SDS011;19554;42.652;23.364;2022-12-07T06:41:28;72.10;;;33.55;;
33190;SDS011;19554;42.652;23.364;2022-12-07T06:43:53;83.10;;;39.25;;
33190;SDS011;19554;42.652;23.364;2022-12-07T06:46:19;91.15;;;40.97;;
33190;SDS011;19554;42.652;23.364;2022-12-07T06:48:44;85.07;;;41.25;;
33190;SDS011;19554;42.652;23.364;2022-12-07T06:51:10;89.38;;;45.17;;
33190;SDS011;19554;42.652;23.364;2022-12-07T06:53:36;88.90;;;43.95;;
33190;SDS011;19554;42.652;23.364;2022-12-07T06:56:03;85.25;;;41.15;;
33190;SDS011;19554;42.652;23.364;2022-12-07T06:58:29;81.45;;;39.22;;
33190;SDS011;19554;42.652;23.364;2022-12-07T07:00:55;89.00;;;40.63;;
33190;SDS011;19554;42.652;23.364;2022-12-07T07:03:20;108.57;;;42.85;;
33190;SDS011;19554;42.652;23.364;2022-12-07T07:05:46;101.28;;;44.30;;
33190;SDS011;19554;42.652;23.364;2022-12-07T07:08:11;103.70;;;48.03;;
33190;SDS011;19554;42.652;23.364;2022-12-07T07:10:37;111.40;;;50.58;;
33190;SDS011;19554;42.652;23.364;2022-12-07T07:13:03;92.95;;;43.47;;
33190;SDS011;19554;42.652;23.364;2022-12-07T07:15:29;96.38;;;42.15;;
33190;SDS011;19554;42.652;23.364;2022-12-07T07:17:55;82.85;;;41.65;;
33190;SDS011;19554;42.652;23.364;2022-12-07T07:20:20;90.15;;;40.60;;
33190;SDS011;19554;42.652;23.364;2022-12-07T07:22:46;85.00;;;41.42;;
33190;SDS011;19554;42.652;23.364;2022-12-07T07:25:11;84.80;;;39.95;;
33190;SDS011;19554;42.652;23.364;2022-12-07T07:27:37;77.97;;;37.97;;
33190;SDS011;19554;42.652;23.364;2022-12-07T07:30:02;71.40;;;37.78;;
33190;SDS011;19554;42.652;23.364;2022-12-07T07:32:28;82.25;;;36.55;;
33190;SDS011;19554;42.652;23.364;2022-12-07T07:34:54;75.95;;;35.40;;
33190;SDS011;19554;42.652;23.364;2022-12-07T07:37:19;74.38;;;36.53;;
33190;SDS011;19554;42.652;23.364;2022-12-07T07:39:44;71.70;;;34.88;;
33190;SDS011;19554;42.652;23.364;2022-12-07T07:42:10;77.93;;;35.10;;
33190;SDS011;19554;42.652;23.364;2022-12-07T07:44:35;85.20;;;37.85;;
33190;SDS011;19554;42.652;23.364;2022-12-07T07:47:00;67.05;;;37.17;;
33190;SDS011;19554;42.652;23.364;2022-12-07T07:49:26;92.50;;;40.70;;
33190;SDS011;19554;42.652;23.364;2022-12-07T07:51:51;71.35;;;37.05;;
33190;SDS011;19554;42.652;23.364;2022-12-07T07:54:17;72.35;;;35.03;;
33190;SDS011;19554;42.652;23.364;2022-12-07T07:56:42;79.78;;;36.30;;
33190;SDS011;19554;42.652;23.364;2022-12-07T07:59:08;64.95;;;33.05;;
33190;SDS011;19554;42.652;23.364;2022-12-07T08:01:33;68.18;;;32.85;;
33190;SDS011;19554;42.652;23.364;2022-12-07T08:03:59;60.63;;;29.63;;
33190;SDS011;19554;42.652;23.364;2022-12-07T08:06:24;68.40;;;33.33;;
33190;SDS011;19554;42.652;23.364;2022-12-07T08:08:49;67.35;;;33.55;;
33190;SDS011;19554;42.652;23.364;2022-12-07T08:11:15;68.15;;;32.75;;
33190;SDS011;19554;42.652;23.364;2022-12-07T08:13:40;65.13;;;30.73;;
33190;SDS011;19554;42.652;23.364;2022-12-07T08:16:09;67.93;;;29.48;;
33190;SDS011;19554;42.652;23.364;2022-12-07T08:18:35;68.27;;;33.13;;
33190;SDS011;19554;42.652;23.364;2022-12-07T08:21:02;67.18;;;30.67;;
33190;SDS011;19554;42.652;23.364;2022-12-07T08:23:28;69.15;;;30.77;;
33190;SDS011;19554;42.652;23.364;2022-12-07T08:25:55;58.42;;;30.92;;
33190;SDS011;19554;42.652;23.364;2022-12-07T08:28:25;67.55;;;31.60;;
33190;SDS011;19554;42.652;23.364;2022-12-07T08:30:50;69.85;;;31.55;;
33190;SDS011;19554;42.652;23.364;2022-12-07T08:33:15;68.60;;;32.65;;
33190;SDS011;19554;42.652;23.364;2022-12-07T08:35:41;60.28;;;31.40;;
33190;SDS011;19554;42.652;23.364;2022-12-07T08:38:06;66.70;;;32.90;;
33190;SDS011;19554;42.652;23.364;2022-12-07T08:40:31;64.75;;;32.22;;
33190;SDS011;19554;42.652;23.364;2022-12-07T08:42:57;61.65;;;32.20;;
33190;SDS011;19554;42.652;23.364;2022-12-07T08:45:22;72.95;;;32.38;;
33190;SDS011;19554;42.652;23.364;2022-12-07T08:47:52;68.75;;;32.40;;
33190;SDS011;19554;42.652;23.364;2022-12-07T08:50:23;65.72;;;31.33;;
33190;SDS011;19554;42.652;23.364;2022-12-07T08:52:52;74.10;;;32.25;;
33190;SDS011;19554;42.652;23.364;2022-12-07T08:55:22;60.92;;;32.28;;
33190;SDS011;19554;42.652;23.364;2022-12-07T08:57:48;59.47;;;30.92;;
33190;SDS011;19554;42.652;23.364;2022-12-07T09:00:14;69.88;;;31.83;;
33190;SDS011;19554;42.652;23.364;2022-12-07T09:02:42;58.45;;;29.83;;
33190;SDS011;19554;42.652;23.364;2022-12-07T09:05:08;56.72;;;28.60;;
33190;SDS011;19554;42.652;23.364;2022-12-07T09:07:34;63.30;;;30.63;;
33190;SDS011;19554;42.652;23.364;2022-12-07T09:10:00;61.25;;;29.65;;
33190;SDS011;19554;42.652;23.364;2022-12-07T09:12:26;64.88;;;30.20;;
33190;SDS011;19554;42.652;23.364;2022-12-07T09:14:51;54.55;;;29.00;;
33190;SDS011;19554;42.652;23.364;2022-12-07T09:17:17;56.88;;;27.67;;
33190;SDS011;19554;42.652;23.364;2022-12-07T09:19:42;60.05;;;28.55;;
33190;SDS011;19554;42.652;23.364;2022-12-07T09:22:08;54.75;;;30.02;;
33190;SDS011;19554;42.652;23.364;2022-12-07T09:24:33;55.83;;;29.23;;
33190;SDS011;19554;42.652;23.364;2022-12-07T09:26:59;56.03;;;29.48;;
33190;SDS011;19554;42.652;23.364;2022-12-07T09:29:24;53.42;;;29.60;;
33190;SDS011;19554;42.652;23.364;2022-12-07T09:31:51;62.60;;;29.02;;
33190;SDS011;19554;42.652;23.364;2022-12-07T09:34:16;59.90;;;29.80;;
33190;SDS011;19554;42.652;23.364;2022-12-07T09:36:42;68.70;;;30.45;;
33190;SDS011;19554;42.652;23.364;2022-12-07T09:39:08;59.05;;;28.33;;
33190;SDS011;19554;42.652;23.364;2022-12-07T09:41:33;62.38;;;32.17;;
33190;SDS011;19554;42.652;23.364;2022-12-07T09:44:09;63.17;;;31.05;;
33190;SDS011;19554;42.652;23.364;2022-12-07T09:46:38;66.85;;;32.33;;
33190;SDS011;19554;42.652;23.364;2022-12-07T09:49:11;59.83;;;29.17;;
33190;SDS011;19554;42.652;23.364;2022-12-07T09:51:42;64.60;;;31.65;;
33190;SDS011;19554;42.652;23.364;2022-12-07T09:54:08;67.38;;;30.67;;
33190;SDS011;19554;42.652;23.364;2022-12-07T09:56:37;62.50;;;30.95;;
33190;SDS011;19554;42.652;23.364;2022-12-07T09:59:02;63.53;;;31.38;;
33190;SDS011;19554;42.652;23.364;2022-12-07T10:01:32;59.67;;;29.90;;
33190;SDS011;19554;42.652;23.364;2022-12-07T10:06:41;66.13;;;32.28;;
33190;SDS011;19554;42.652;23.364;2022-12-07T10:09:11;68.75;;;30.80;;
33190;SDS011;19554;42.652;23.364;2022-12-07T10:14:27;64.70;;;31.02;;
33190;SDS011;19554;42.652;23.364;2022-12-07T10:16:54;65.65;;;30.83;;
33190;SDS011;19554;42.652;23.364;2022-12-07T10:19:24;65.93;;;30.83;;
33190;SDS011;19554;42.652;23.364;2022-12-07T10:24:39;71.47;;;29.83;;
33190;SDS011;19554;42.652;23.364;2022-12-07T10:27:17;57.55;;;29.77;;
33190;SDS011;19554;42.652;23.364;2022-12-07T10:29:51;65.72;;;29.83;;
33190;SDS011;19554;42.652;23.364;2022-12-07T10:34:43;64.65;;;28.98;;
33190;SDS011;19554;42.652;23.364;2022-12-07T10:39:40;61.83;;;29.83;;
33190;SDS011;19554;42.652;23.364;2022-12-07T10:42:18;54.85;;;29.88;;
33190;SDS011;19554;42.652;23.364;2022-12-07T11:01:54;57.25;;;23.45;;
33190;SDS011;19554;42.652;23.364;2022-12-07T11:10:05;57.92;;;25.08;;
33190;SDS011;19554;42.652;23.364;2022-12-07T11:15:26;50.80;;;26.50;;
33190;SDS011;19554;42.652;23.364;2022-12-07T11:18:26;51.90;;;25.27;;
33190;SDS011;19554;42.652;23.364;2022-12-07T11:26:24;54.90;;;24.73;;
33190;SDS011;19554;42.652;23.364;2022-12-07T11:36:45;52.72;;;24.30;;
33190;SDS011;19554;42.652;23.364;2022-12-07T11:42:03;52.97;;;25.23;;
33190;SDS011;19554;42.652;23.364;2022-12-07T11:47:30;51.40;;;24.70;;
33190;SDS011;19554;42.652;23.364;2022-12-07T11:50:25;53.15;;;24.02;;
33190;SDS011;19554;42.652;23.364;2022-12-07T11:53:28;53.88;;;25.20;;
33190;SDS011;19554;42.652;23.364;2022-12-07T11:56:19;58.22;;;26.85;;
33190;SDS011;19554;42.652;23.364;2022-12-07T12:06:52;53.28;;;24.95;;
33190;SDS011;19554;42.652;23.364;2022-12-07T12:09:29;50.97;;;24.73;;
33190;SDS011;19554;42.652;23.364;2022-12-07T12:20:18;54.13;;;26.85;;
33190;SDS011;19554;42.652;23.364;2022-12-07T12:25:35;54.65;;;25.52;;
33190;SDS011;19554;42.652;23.364;2022-12-07T12:28:04;59.08;;;26.02;;
33190;SDS011;19554;42.652;23.364;2022-12-07T12:30:37;65.13;;;26.33;;
33190;SDS011;19554;42.652;23.364;2022-12-07T12:33:20;51.72;;;24.67;;
33190;SDS011;19554;42.652;23.364;2022-12-07T12:51:57;38.72;;;19.38;;
33190;SDS011;19554;42.652;23.364;2022-12-07T12:54:58;45.40;;;20.30;;
33190;SDS011;19554;42.652;23.364;2022-12-07T12:57:27;39.72;;;21.13;;
33190;SDS011;19554;42.652;23.364;2022-12-07T13:13:29;44.58;;;21.70;;
33190;SDS011;19554;42.652;23.364;2022-12-07T13:23:19;38.08;;;19.25;;
33190;SDS011;19554;42.652;23.364;2022-12-07T13:26:00;43.08;;;19.73;;
33190;SDS011;19554;42.652;23.364;2022-12-07T13:34:00;45.55;;;22.58;;
33190;SDS011;19554;42.652;23.364;2022-12-07T13:36:27;41.42;;;20.17;;
33190;SDS011;19554;42.652;23.364;2022-12-07T13:39:00;41.03;;;19.00;;
33190;SDS011;19554;42.652;23.364;2022-12-07T13:41:41;44.15;;;19.73;;
33190;SDS011;19554;42.652;23.364;2022-12-07T13:44:11;41.13;;;18.63;;
33190;SDS011;19554;42.652;23.364;2022-12-07T13:49:27;49.25;;;19.20;;
33190;SDS011;19554;42.652;23.364;2022-12-07T13:51:54;51.47;;;19.65;;
33190;SDS011;19554;42.652;23.364;2022-12-07T13:54:31;41.83;;;19.05;;
33190;SDS011;19554;42.652;23.364;2022-12-07T13:56:57;42.10;;;19.45;;
33190;SDS011;19554;42.652;23.364;2022-12-07T13:59:23;42.22;;;18.40;;
33190;SDS011;19554;42.652;23.364;2022-12-07T14:01:51;43.35;;;20.77;;
33190;SDS011;19554;42.652;23.364;2022-12-07T14:04:36;42.80;;;19.88;;
33190;SDS011;19554;42.652;23.364;2022-12-07T14:07:19;38.47;;;17.48;;
33190;SDS011;19554;42.652;23.364;2022-12-07T14:09:53;38.95;;;19.08;;
33190;SDS011;19554;42.652;23.364;2022-12-07T14:12:24;41.28;;;18.60;;
33190;SDS011;19554;42.652;23.364;2022-12-07T14:14:50;45.30;;;20.50;;
33190;SDS011;19554;42.652;23.364;2022-12-07T14:17:20;50.70;;;23.23;;
33190;SDS011;19554;42.652;23.364;2022-12-07T14:19:55;55.47;;;22.23;;
33190;SDS011;19554;42.652;23.364;2022-12-07T14:22:34;47.45;;;22.98;;
33190;SDS011;19554;42.652;23.364;2022-12-07T14:27:39;38.47;;;18.33;;
33190;SDS011;19554;42.652;23.364;2022-12-07T14:30:14;41.13;;;18.48;;
33190;SDS011;19554;42.652;23.364;2022-12-07T14:32:42;39.20;;;18.92;;
33190;SDS011;19554;42.652;23.364;2022-12-07T14:35:14;37.20;;;17.00;;
33190;SDS011;19554;42.652;23.364;2022-12-07T14:37:42;38.50;;;19.38;;
33190;SDS011;19554;42.652;23.364;2022-12-07T14:40:12;40.75;;;20.10;;
33190;SDS011;19554;42.652;23.364;2022-12-07T14:42:39;41.55;;;19.08;;
33190;SDS011;19554;42.652;23.364;2022-12-07T14:45:12;43.67;;;19.17;;
33190;SDS011;19554;42.652;23.364;2022-12-07T14:47:39;42.13;;;20.27;;
33190;SDS011;19554;42.652;23.364;2022-12-07T14:50:05;41.63;;;19.17;;
33190;SDS011;19554;42.652;23.364;2022-12-07T14:52:31;44.83;;;20.10;;
33190;SDS011;19554;42.652;23.364;2022-12-07T14:54:56;44.85;;;19.25;;
33190;SDS011;19554;42.652;23.364;2022-12-07T14:57:22;59.10;;;23.65;;
33190;SDS011;19554;42.652;23.364;2022-12-07T14:59:48;108.80;;;43.78;;
33190;SDS011;19554;42.652;23.364;2022-12-07T15:02:14;76.97;;;34.50;;
33190;SDS011;19554;42.652;23.364;2022-12-07T15:04:40;78.90;;;33.75;;
33190;SDS011;19554;42.652;23.364;2022-12-07T15:07:06;88.30;;;37.38;;
33190;SDS011;19554;42.652;23.364;2022-12-07T15:09:37;67.28;;;28.52;;
33190;SDS011;19554;42.652;23.364;2022-12-07T15:12:03;59.15;;;21.95;;
33190;SDS011;19554;42.652;23.364;2022-12-07T15:14:29;48.85;;;22.13;;
33190;SDS011;19554;42.652;23.364;2022-12-07T15:16:54;50.08;;;23.15;;
33190;SDS011;19554;42.652;23.364;2022-12-07T15:19:20;59.03;;;24.25;;
33190;SDS011;19554;42.652;23.364;2022-12-07T15:21:49;46.55;;;22.52;;
33190;SDS011;19554;42.652;23.364;2022-12-07T15:24:14;58.13;;;25.90;;
33190;SDS011;19554;42.652;23.364;2022-12-07T15:26:40;62.90;;;28.20;;
33190;SDS011;19554;42.652;23.364;2022-12-07T15:29:05;70.55;;;30.42;;
33190;SDS011;19554;42.652;23.364;2022-12-07T15:31:31;69.65;;;29.20;;
33190;SDS011;19554;42.652;23.364;2022-12-07T15:33:57;71.57;;;31.63;;
33190;SDS011;19554;42.652;23.364;2022-12-07T15:36:24;75.32;;;30.60;;
33190;SDS011;19554;42.652;23.364;2022-12-07T15:38:51;122.57;;;48.00;;
33190;SDS011;19554;42.652;23.364;2022-12-07T15:41:17;76.28;;;33.60;;
33190;SDS011;19554;42.652;23.364;2022-12-07T15:43:43;102.63;;;37.78;;
33190;SDS011;19554;42.652;23.364;2022-12-07T15:46:31;95.03;;;40.28;;
33190;SDS011;19554;42.652;23.364;2022-12-07T15:49:01;83.78;;;37.72;;
33190;SDS011;19554;42.652;23.364;2022-12-07T15:51:27;103.25;;;44.25;;
33190;SDS011;19554;42.652;23.364;2022-12-07T15:53:53;109.05;;;42.97;;
33190;SDS011;19554;42.652;23.364;2022-12-07T15:56:19;160.57;;;66.90;;
33190;SDS011;19554;42.652;23.364;2022-12-07T15:58:44;198.75;;;82.10;;
33190;SDS011;19554;42.652;23.364;2022-12-07T16:01:14;198.40;;;76.57;;
33190;SDS011;19554;42.652;23.364;2022-12-07T16:03:41;160.82;;;66.68;;
33190;SDS011;19554;42.652;23.364;2022-12-07T16:06:07;151.05;;;59.33;;
33190;SDS011;19554;42.652;23.364;2022-12-07T16:08:32;95.80;;;40.47;;
33190;SDS011;19554;42.652;23.364;2022-12-07T16:10:58;113.78;;;45.78;;
33190;SDS011;19554;42.652;23.364;2022-12-07T16:13:23;141.63;;;55.60;;
33190;SDS011;19554;42.652;23.364;2022-12-07T16:15:49;102.03;;;42.35;;
33190;SDS011;19554;42.652;23.364;2022-12-07T16:18:14;118.30;;;49.17;;
33190;SDS011;19554;42.652;23.364;2022-12-07T16:20:40;160.88;;;65.18;;
33190;SDS011;19554;42.652;23.364;2022-12-07T16:23:06;141.52;;;58.55;;
33190;SDS011;19554;42.652;23.364;2022-12-07T16:25:32;121.97;;;55.72;;
33190;SDS011;19554;42.652;23.364;2022-12-07T16:27:57;92.13;;;44.17;;
33190;SDS011;19554;42.652;23.364;2022-12-07T16:30:23;88.00;;;38.38;;
33190;SDS011;19554;42.652;23.364;2022-12-07T16:32:48;73.95;;;32.38;;
33190;SDS011;19554;42.652;23.364;2022-12-07T16:35:13;74.70;;;32.83;;
33190;SDS011;19554;42.652;23.364;2022-12-07T16:37:41;142.05;;;55.72;;
33190;SDS011;19554;42.652;23.364;2022-12-07T16:40:07;153.73;;;60.92;;
33190;SDS011;19554;42.652;23.364;2022-12-07T16:42:33;135.30;;;56.30;;
33190;SDS011;19554;42.652;23.364;2022-12-07T16:44:59;218.35;;;89.90;;
33190;SDS011;19554;42.652;23.364;2022-12-07T16:47:25;154.98;;;63.17;;
33190;SDS011;19554;42.652;23.364;2022-12-07T16:49:50;106.15;;;41.33;;
33190;SDS011;19554;42.652;23.364;2022-12-07T16:52:17;91.43;;;39.03;;
33190;SDS011;19554;42.652;23.364;2022-12-07T16:54:45;96.38;;;41.90;;
33190;SDS011;19554;42.652;23.364;2022-12-07T16:57:12;82.35;;;34.22;;
33190;SDS011;19554;42.652;23.364;2022-12-07T16:59:37;93.10;;;39.47;;
33190;SDS011;19554;42.652;23.364;2022-12-07T17:02:02;86.93;;;37.75;;